createdAt,value
2022-09-21T00:04:25.305Z,100988.94
2022-09-21T00:09:26.846Z,100983.88
2022-09-21T00:14:28.550Z,100989.38
2022-09-21T00:19:30.450Z,100994.31
2022-09-21T00:24:31.984Z,100985.28
2022-09-21T00:29:33.543Z,100984.28
2022-09-21T00:34:35.070Z,100997.69
2022-09-21T00:39:36.665Z,100983.31
2022-09-21T00:44:38.231Z,100989.13
2022-09-21T00:49:41.472Z,100988.53
2022-09-21T00:54:47.192Z,100993.91
2022-09-21T00:59:50.616Z,100992.91
2022-09-21T01:04:55.950Z,100996.31
2022-09-21T01:10:00.198Z,100998.28
2022-09-21T01:15:29.047Z,100994.31
2022-09-21T01:21:09.997Z,101007.59
2022-09-21T01:26:22.123Z,100995.44
2022-09-21T01:31:36.680Z,101005.56
2022-09-21T01:36:39.824Z,101002.72
2022-09-21T01:41:43.222Z,101000.50
2022-09-21T01:46:46.532Z,101018.84
2022-09-21T01:51:52.475Z,101011.78
2022-09-21T01:57:11.245Z,101014.59
2022-09-21T02:02:19.693Z,101022.19
2022-09-21T02:07:21.324Z,101026.84
2022-09-21T02:12:23.066Z,101026.97
2022-09-21T02:17:36.872Z,101019.94
2022-09-21T02:22:53.409Z,101034.63
2022-09-21T02:28:35.112Z,101034.97
2022-09-21T02:33:47.231Z,101039.06
2022-09-21T02:39:10.650Z,101031.97
2022-09-21T02:44:22.547Z,101036.94
2022-09-21T02:49:41.902Z,101038.22
2022-09-21T02:54:47.698Z,101036.81
2022-09-21T02:59:50.388Z,101042.28
2022-09-21T03:04:51.966Z,101054.06
2022-09-21T03:09:54.287Z,101055.47
2022-09-21T03:14:56.055Z,101056.97
2022-09-21T03:19:57.636Z,101059.97
2022-09-21T03:24:59.728Z,101052.25
2022-09-21T03:30:02.322Z,101057.69
2022-09-21T03:35:04.898Z,101056.03
2022-09-21T03:40:06.902Z,101061.84
2022-09-21T03:45:10.112Z,101066.19
2022-09-21T03:50:12.055Z,101066.22
2022-09-21T03:55:13.589Z,101068.31
2022-09-21T04:00:15.906Z,101067.78
2022-09-21T04:05:17.982Z,101064.06
2022-09-21T04:10:21.323Z,101068.66
2022-09-21T04:15:23.408Z,101076.94
2022-09-21T04:20:25.228Z,101080.72
2022-09-21T04:25:26.757Z,101084.13
2022-09-21T04:30:29.134Z,101088.88
2022-09-21T04:35:31.002Z,101088.84
2022-09-21T04:40:32.625Z,101082.25
2022-09-21T04:45:34.584Z,101086.19
2022-09-21T04:50:37.928Z,101091.78
2022-09-21T04:55:45.158Z,101097.75
2022-09-21T05:00:50.857Z,101104.59
2022-09-21T05:05:55.054Z,101105.38
2022-09-21T05:10:56.628Z,101112.88
2022-09-21T05:15:58.236Z,101121.63
2022-09-21T05:21:01.056Z,101120.81
2022-09-21T05:26:02.882Z,101131.81
2022-09-21T05:31:18.588Z,101137.19
2022-09-21T05:36:38.561Z,101143.97
2022-09-21T05:41:40.570Z,101148.56
2022-09-21T05:47:04.491Z,101154.50
2022-09-21T05:52:16.516Z,101148.81
2022-09-21T05:57:57.342Z,101154.25
2022-09-21T06:03:05.273Z,101160.16
2022-09-21T06:08:06.772Z,101166.56
2022-09-21T06:13:08.358Z,101164.81
2022-09-21T06:18:14.232Z,101167.94
2022-09-21T06:23:18.634Z,101175.88
2022-09-21T06:28:20.394Z,101174.44
2022-09-21T06:33:23.577Z,101178.28
2022-09-21T06:38:26.191Z,101183.16
2022-09-21T06:43:27.705Z,101179.56
2022-09-21T06:48:30.747Z,101181.16
2022-09-21T06:53:33.872Z,101179.81
2022-09-21T06:58:36.025Z,101184.41
2022-09-21T07:03:38.914Z,101184.44
2022-09-21T07:14:01.921Z,101190.28
2022-09-21T07:19:11.090Z,101193.25
2022-09-21T07:24:13.285Z,101205.53
2022-09-21T07:29:15.022Z,101198.34
2022-09-21T07:34:16.610Z,101207.69
2022-09-21T07:39:18.206Z,101207.94
2022-09-21T07:44:22.488Z,101212.78
2022-09-21T07:49:24.063Z,101213.91
2022-09-21T07:54:25.607Z,101218.16
2022-09-21T07:59:27.489Z,101217.03
2022-09-21T08:04:29.019Z,101218.75
2022-09-21T08:09:30.663Z,101216.19
2022-09-21T08:14:32.653Z,101215.75
2022-09-21T08:19:34.607Z,101209.25
2022-09-21T08:24:36.717Z,101214.34
2022-09-21T08:29:38.498Z,101218.00
2022-09-21T08:34:40.016Z,101218.16
2022-09-21T08:39:41.702Z,101213.66
2022-09-21T08:44:48.900Z,101217.56
2022-09-21T08:49:57.066Z,101211.19
2022-09-21T08:55:01.749Z,101222.66
2022-09-21T09:00:08.306Z,101219.84
2022-09-21T09:05:30.853Z,101221.25
2022-09-21T09:10:42.260Z,101219.81
2022-09-21T09:16:11.961Z,101222.34
2022-09-21T09:21:27.886Z,101219.47
2022-09-21T09:26:45.924Z,101215.41
2022-09-21T09:31:48.399Z,101217.16
2022-09-21T09:36:59.061Z,101214.78
2022-09-21T09:42:22.639Z,101212.31
2022-09-21T09:47:48.577Z,101206.63
2022-09-21T09:52:54.312Z,101209.63
2022-09-21T09:57:56.414Z,101211.25
2022-09-21T10:02:58.909Z,101212.38
2022-09-21T10:08:01.024Z,101207.97
2022-09-21T10:13:46.036Z,101203.78
2022-09-21T10:18:56.368Z,101192.78
2022-09-21T10:24:18.913Z,101198.72
2022-09-21T10:29:23.273Z,101188.78
2022-09-21T10:34:27.778Z,101193.78
2022-09-21T10:39:33.554Z,101189.81
2022-09-21T10:44:39.357Z,101192.13
2022-09-21T10:49:45.197Z,101190.94
2022-09-21T10:54:49.035Z,101182.25
2022-09-21T10:59:50.984Z,101178.56
2022-09-21T11:05:17.172Z,101185.00
2022-09-21T11:10:24.093Z,101181.06
2022-09-21T11:15:45.818Z,101181.09
2022-09-21T11:20:57.723Z,101167.34
2022-09-21T11:26:09.118Z,101172.59
2022-09-21T11:31:45.819Z,101177.47
2022-09-21T11:37:01.234Z,101166.31
2022-09-21T11:42:21.880Z,101171.81
2022-09-21T11:47:52.748Z,101165.16
2022-09-21T11:53:03.140Z,101161.47
2022-09-21T11:58:29.687Z,101156.44
2022-09-21T12:04:03.581Z,101158.34
2022-09-21T12:09:11.425Z,101148.09
2022-09-21T12:14:30.450Z,101150.97
2022-09-21T12:19:46.050Z,101143.38
2022-09-21T12:24:51.365Z,101137.34
2022-09-21T12:29:57.379Z,101133.00
2022-09-21T12:35:05.242Z,101132.31
2022-09-21T12:40:23.113Z,101122.88
2022-09-21T12:45:32.637Z,101118.19
2022-09-21T12:50:48.468Z,101115.28
2022-09-21T12:56:03.653Z,101113.78
2022-09-21T13:01:32.061Z,101126.63
2022-09-21T13:07:02.956Z,101119.22
2022-09-21T13:12:12.051Z,101123.25
2022-09-21T13:17:23.651Z,101122.59
2022-09-21T13:22:26.900Z,101124.47
2022-09-21T13:27:59.224Z,101114.53
2022-09-21T13:33:01.949Z,101116.84
2022-09-21T13:38:26.039Z,101112.66
2022-09-21T13:44:05.727Z,101111.16
2022-09-21T13:49:16.065Z,101102.47
2022-09-21T13:54:17.996Z,101090.31
2022-09-21T13:59:22.990Z,101087.63
2022-09-21T14:04:28.550Z,101077.84
2022-09-21T14:09:35.367Z,101082.81
2022-09-21T14:14:38.447Z,101090.22
2022-09-21T14:19:42.954Z,101087.16
2022-09-21T14:24:45.334Z,101089.03
2022-09-21T14:29:56.281Z,101079.69
2022-09-21T14:35:02.263Z,101101.16
2022-09-21T14:40:17.884Z,101105.94
2022-09-21T14:45:25.007Z,101101.59
2022-09-21T14:50:32.283Z,101096.34
2022-09-21T14:56:01.155Z,101091.19
2022-09-21T15:01:22.176Z,101084.56
2022-09-21T15:06:51.492Z,101090.56
2022-09-21T15:12:01.894Z,101086.28
2022-09-21T15:17:24.051Z,101081.63
2022-09-21T15:22:27.300Z,101073.56
2022-09-21T15:27:32.937Z,101076.41
2022-09-21T15:32:42.901Z,101071.31
2022-09-21T15:37:45.780Z,101073.09
2022-09-21T15:43:06.742Z,101069.56
2022-09-21T15:48:12.381Z,101070.09
2022-09-21T15:53:26.594Z,101062.66
2022-09-21T15:58:37.134Z,101069.41
2022-09-21T16:03:39.879Z,101067.25
2022-09-21T16:08:41.484Z,101066.88
2022-09-21T16:14:02.934Z,101072.84
2022-09-21T16:19:04.612Z,101073.19
2022-09-21T16:24:21.191Z,101073.38
2022-09-21T16:29:27.716Z,101076.00
2022-09-21T16:34:35.816Z,101073.84
2022-09-21T16:39:37.405Z,101077.47
2022-09-21T16:44:40.934Z,101076.47
2022-09-21T16:49:42.977Z,101079.50
2022-09-21T16:54:44.550Z,101075.53
2022-09-21T16:59:46.568Z,101080.34
2022-09-21T17:04:48.441Z,101080.34
2022-09-21T17:09:51.164Z,101087.84
2022-09-21T17:14:53.149Z,101082.72
2022-09-21T17:19:54.674Z,101082.75
2022-09-21T17:24:56.192Z,101082.75
2022-09-21T17:30:00.624Z,101086.41
2022-09-21T17:35:20.109Z,101087.34
2022-09-21T17:40:24.111Z,101088.72
2022-09-21T17:46:04.527Z,101094.16
2022-09-21T17:51:06.551Z,101093.91
2022-09-21T17:56:43.407Z,101088.25
2022-09-21T18:01:45.136Z,101093.47
2022-09-21T18:06:46.860Z,101097.13
2022-09-21T18:12:29.243Z,101104.47
2022-09-21T18:17:49.197Z,101103.28
2022-09-21T18:23:02.372Z,101114.19
2022-09-21T18:28:12.324Z,101112.53
2022-09-21T18:33:46.056Z,101114.97
2022-09-21T18:39:01.674Z,101112.13
2022-09-21T18:44:15.399Z,101122.03
2022-09-21T18:49:35.387Z,101125.28
2022-09-21T18:54:37.235Z,101125.97
2022-09-21T18:59:39.448Z,101128.53
2022-09-21T19:04:44.828Z,101115.00
2022-09-21T19:10:05.286Z,101123.03
2022-09-21T19:15:48.724Z,101114.56
2022-09-21T19:21:20.807Z,101118.34
2022-09-21T19:27:03.939Z,101118.22
2022-09-21T19:32:22.789Z,101121.22
2022-09-21T19:37:24.399Z,101124.28
2022-09-21T19:42:35.142Z,101123.19
2022-09-21T19:47:44.428Z,101120.94
2022-09-21T19:52:46.390Z,101119.09
2022-09-21T19:58:06.858Z,101122.03
2022-09-21T20:03:21.719Z,101119.06
2022-09-21T20:08:30.900Z,101127.53
2022-09-21T20:13:57.706Z,101124.16
2022-09-21T20:19:14.623Z,101117.94
2022-09-21T20:24:28.017Z,101119.19
2022-09-21T20:29:29.589Z,101121.16
2022-09-21T20:34:31.524Z,101118.59
2022-09-21T20:39:33.027Z,101117.28
2022-09-21T20:44:34.551Z,101117.75
2022-09-21T20:49:36.120Z,101116.09
2022-09-21T20:54:37.637Z,101114.09
2022-09-21T20:59:39.442Z,101119.63
2022-09-21T21:04:41.162Z,101119.47
2022-09-21T21:09:42.740Z,101111.28
2022-09-21T21:14:45.399Z,101110.84
2022-09-21T21:19:46.980Z,101118.59
2022-09-21T21:24:48.548Z,101120.75
2022-09-21T21:29:51.137Z,101121.91
2022-09-21T21:34:53.733Z,101105.38
2022-09-21T21:39:56.237Z,101094.31
2022-09-21T21:44:57.779Z,101103.78
2022-09-21T21:50:00.419Z,101097.16
2022-09-21T21:55:02.527Z,101104.50
2022-09-21T22:00:05.808Z,101101.53
2022-09-21T22:05:07.586Z,101095.19
2022-09-21T22:10:09.666Z,101091.19
2022-09-21T22:15:11.354Z,101092.56
2022-09-21T22:20:12.912Z,101087.78
2022-09-21T22:25:14.535Z,101093.84
2022-09-21T22:30:16.071Z,101094.69
2022-09-21T22:35:17.875Z,101081.97
2022-09-21T22:40:20.367Z,101087.09
2022-09-21T22:45:22.151Z,101087.97
2022-09-21T22:50:23.630Z,101085.00
2022-09-21T22:55:25.137Z,101082.00
2022-09-21T23:00:26.668Z,101079.69
2022-09-21T23:05:28.222Z,101086.91
2022-09-21T23:10:29.760Z,101083.56
2022-09-21T23:15:31.364Z,101089.22
2022-09-21T23:20:33.361Z,101088.38
2022-09-21T23:25:34.863Z,101092.88
2022-09-21T23:30:36.430Z,101087.44
2022-09-21T23:35:41.404Z,101078.75
2022-09-21T23:40:42.956Z,101079.59
2022-09-21T23:45:44.530Z,101084.63
2022-09-21T23:50:46.032Z,101090.31
2022-09-21T23:55:48.578Z,101088.97
